sensor_id;sensor_type;location;lat;lon;timestamp;P1;durP1;ratioP1;P2;durP2;ratioP2
37323;SDS011;23205;49.986;18.950;2022-09-01T00:00:46;12.40;;;5.15;;
37323;SDS011;23205;49.986;18.950;2022-09-01T00:05:50;14.23;;;4.90;;
37323;SDS011;23205;49.986;18.950;2022-09-01T00:10:54;9.18;;;3.75;;
37323;SDS011;23205;49.986;18.950;2022-09-01T00:15:55;10.80;;;4.88;;
37323;SDS011;23205;49.986;18.950;2022-09-01T00:20:55;11.90;;;4.38;;
37323;SDS011;23205;49.986;18.950;2022-09-01T00:25:58;12.57;;;4.93;;
37323;SDS011;23205;49.986;18.950;2022-09-01T00:30:59;10.32;;;3.95;;
37323;SDS011;23205;49.986;18.950;2022-09-01T00:36:00;9.15;;;3.05;;
37323;SDS011;23205;49.986;18.950;2022-09-01T00:41:01;8.95;;;3.10;;
37323;SDS011;23205;49.986;18.950;2022-09-01T00:46:04;9.30;;;3.30;;
37323;SDS011;23205;49.986;18.950;2022-09-01T00:51:08;9.73;;;3.25;;
37323;SDS011;23205;49.986;18.950;2022-09-01T00:56:10;9.95;;;2.72;;
37323;SDS011;23205;49.986;18.950;2022-09-01T01:01:12;6.85;;;3.25;;
37323;SDS011;23205;49.986;18.950;2022-09-01T01:06:13;9.27;;;3.67;;
37323;SDS011;23205;49.986;18.950;2022-09-01T01:11:15;8.88;;;2.97;;
37323;SDS011;23205;49.986;18.950;2022-09-01T01:16:17;10.40;;;4.00;;
37323;SDS011;23205;49.986;18.950;2022-09-01T01:27:01;11.88;;;4.35;;
37323;SDS011;23205;49.986;18.950;2022-09-01T01:32:05;9.50;;;3.70;;
37323;SDS011;23205;49.986;18.950;2022-09-01T01:37:12;9.25;;;4.03;;
37323;SDS011;23205;49.986;18.950;2022-09-01T01:42:14;8.25;;;3.58;;
37323;SDS011;23205;49.986;18.950;2022-09-01T01:47:16;11.80;;;3.75;;
37323;SDS011;23205;49.986;18.950;2022-09-01T01:52:17;11.32;;;4.50;;
37323;SDS011;23205;49.986;18.950;2022-09-01T01:57:20;9.10;;;4.38;;
37323;SDS011;23205;49.986;18.950;2022-09-01T02:02:21;12.60;;;5.40;;
37323;SDS011;23205;49.986;18.950;2022-09-01T02:07:22;14.38;;;5.25;;
37323;SDS011;23205;49.986;18.950;2022-09-01T02:12:23;15.10;;;5.03;;
37323;SDS011;23205;49.986;18.950;2022-09-01T02:17:24;10.23;;;5.10;;
37323;SDS011;23205;49.986;18.950;2022-09-01T02:22:26;15.90;;;4.72;;
37323;SDS011;23205;49.986;18.950;2022-09-01T02:27:27;13.73;;;4.80;;
37323;SDS011;23205;49.986;18.950;2022-09-01T02:32:29;9.50;;;3.85;;
37323;SDS011;23205;49.986;18.950;2022-09-01T02:37:31;10.07;;;4.35;;
37323;SDS011;23205;49.986;18.950;2022-09-01T02:42:33;12.75;;;4.10;;
37323;SDS011;23205;49.986;18.950;2022-09-01T02:47:34;9.48;;;3.17;;
37323;SDS011;23205;49.986;18.950;2022-09-01T02:52:35;10.27;;;3.08;;
37323;SDS011;23205;49.986;18.950;2022-09-01T02:57:36;32.63;;;16.98;;
37323;SDS011;23205;49.986;18.950;2022-09-01T03:02:37;22.27;;;12.40;;
37323;SDS011;23205;49.986;18.950;2022-09-01T03:07:38;11.30;;;5.40;;
37323;SDS011;23205;49.986;18.950;2022-09-01T03:12:41;9.73;;;3.55;;
37323;SDS011;23205;49.986;18.950;2022-09-01T03:17:42;10.88;;;4.60;;
37323;SDS011;23205;49.986;18.950;2022-09-01T03:22:45;17.90;;;8.98;;
37323;SDS011;23205;49.986;18.950;2022-09-01T03:27:47;41.55;;;20.30;;
37323;SDS011;23205;49.986;18.950;2022-09-01T03:32:48;19.40;;;9.38;;
37323;SDS011;23205;49.986;18.950;2022-09-01T03:37:49;20.08;;;9.45;;
37323;SDS011;23205;49.986;18.950;2022-09-01T03:42:52;33.58;;;13.93;;
37323;SDS011;23205;49.986;18.950;2022-09-01T03:47:55;73.72;;;33.75;;
37323;SDS011;23205;49.986;18.950;2022-09-01T03:52:57;29.58;;;12.43;;
37323;SDS011;23205;49.986;18.950;2022-09-01T03:58:01;21.45;;;9.70;;
37323;SDS011;23205;49.986;18.950;2022-09-01T04:03:06;13.95;;;7.00;;
37323;SDS011;23205;49.986;18.950;2022-09-01T04:08:12;22.35;;;10.57;;
37323;SDS011;23205;49.986;18.950;2022-09-01T04:13:13;15.98;;;7.45;;
37323;SDS011;23205;49.986;18.950;2022-09-01T04:18:18;19.48;;;10.15;;
37323;SDS011;23205;49.986;18.950;2022-09-01T04:23:26;15.93;;;6.63;;
37323;SDS011;23205;49.986;18.950;2022-09-01T04:28:31;10.57;;;4.33;;
37323;SDS011;23205;49.986;18.950;2022-09-01T04:33:36;10.93;;;3.03;;
37323;SDS011;23205;49.986;18.950;2022-09-01T04:38:40;6.20;;;2.40;;
37323;SDS011;23205;49.986;18.950;2022-09-01T04:43:41;9.55;;;3.15;;
37323;SDS011;23205;49.986;18.950;2022-09-01T04:48:44;9.15;;;3.65;;
37323;SDS011;23205;49.986;18.950;2022-09-01T04:53:48;9.55;;;2.97;;
37323;SDS011;23205;49.986;18.950;2022-09-01T04:58:51;11.45;;;4.00;;
37323;SDS011;23205;49.986;18.950;2022-09-01T05:03:55;7.40;;;2.42;;
37323;SDS011;23205;49.986;18.950;2022-09-01T05:09:11;8.05;;;2.45;;
37323;SDS011;23205;49.986;18.950;2022-09-01T05:14:22;6.38;;;2.58;;
37323;SDS011;23205;49.986;18.950;2022-09-01T05:19:25;7.05;;;1.77;;
37323;SDS011;23205;49.986;18.950;2022-09-01T05:24:31;3.75;;;1.42;;
37323;SDS011;23205;49.986;18.950;2022-09-01T05:29:37;4.60;;;1.30;;
37323;SDS011;23205;49.986;18.950;2022-09-01T05:34:41;7.22;;;2.20;;
37323;SDS011;23205;49.986;18.950;2022-09-01T05:39:44;5.22;;;1.92;;
37323;SDS011;23205;49.986;18.950;2022-09-01T05:44:45;5.70;;;1.55;;
37323;SDS011;23205;49.986;18.950;2022-09-01T05:49:49;6.75;;;1.40;;
37323;SDS011;23205;49.986;18.950;2022-09-01T05:54:50;5.50;;;1.63;;
37323;SDS011;23205;49.986;18.950;2022-09-01T05:59:51;6.15;;;1.70;;
37323;SDS011;23205;49.986;18.950;2022-09-01T06:04:55;5.43;;;1.90;;
37323;SDS011;23205;49.986;18.950;2022-09-01T06:10:00;7.72;;;2.00;;
37323;SDS011;23205;49.986;18.950;2022-09-01T06:15:01;6.03;;;2.30;;
37323;SDS011;23205;49.986;18.950;2022-09-01T06:20:02;5.63;;;1.60;;
37323;SDS011;23205;49.986;18.950;2022-09-01T06:25:10;5.30;;;1.52;;
37323;SDS011;23205;49.986;18.950;2022-09-01T06:30:15;5.55;;;1.20;;
37323;SDS011;23205;49.986;18.950;2022-09-01T06:35:26;5.80;;;1.40;;
37323;SDS011;23205;49.986;18.950;2022-09-01T06:40:29;3.95;;;1.10;;
37323;SDS011;23205;49.986;18.950;2022-09-01T06:45:31;5.30;;;1.00;;
37323;SDS011;23205;49.986;18.950;2022-09-01T06:50:34;6.25;;;1.60;;
37323;SDS011;23205;49.986;18.950;2022-09-01T06:55:37;5.80;;;1.10;;
37323;SDS011;23205;49.986;18.950;2022-09-01T07:00:38;5.90;;;1.35;;
37323;SDS011;23205;49.986;18.950;2022-09-01T07:05:44;4.43;;;1.67;;
37323;SDS011;23205;49.986;18.950;2022-09-01T07:10:47;5.03;;;1.20;;
37323;SDS011;23205;49.986;18.950;2022-09-01T07:15:52;3.20;;;1.05;;
37323;SDS011;23205;49.986;18.950;2022-09-01T07:20:54;2.58;;;0.90;;
37323;SDS011;23205;49.986;18.950;2022-09-01T07:25:55;3.20;;;0.80;;
37323;SDS011;23205;49.986;18.950;2022-09-01T07:31:06;3.88;;;1.00;;
37323;SDS011;23205;49.986;18.950;2022-09-01T07:36:10;4.43;;;0.80;;
37323;SDS011;23205;49.986;18.950;2022-09-01T07:41:11;4.90;;;0.70;;
37323;SDS011;23205;49.986;18.950;2022-09-01T07:46:32;4.70;;;0.60;;
37323;SDS011;23205;49.986;18.950;2022-09-01T07:51:34;4.45;;;0.50;;
37323;SDS011;23205;49.986;18.950;2022-09-01T07:56:36;1.52;;;0.40;;
37323;SDS011;23205;49.986;18.950;2022-09-01T08:01:36;3.95;;;0.57;;
37323;SDS011;23205;49.986;18.950;2022-09-01T08:06:38;2.55;;;0.57;;
37323;SDS011;23205;49.986;18.950;2022-09-01T08:11:40;18.35;;;0.95;;
37323;SDS011;23205;49.986;18.950;2022-09-01T08:16:42;1.45;;;0.50;;
37323;SDS011;23205;49.986;18.950;2022-09-01T08:21:43;4.45;;;0.57;;
37323;SDS011;23205;49.986;18.950;2022-09-01T08:26:59;3.25;;;0.55;;
37323;SDS011;23205;49.986;18.950;2022-09-01T08:32:00;1.95;;;0.60;;
37323;SDS011;23205;49.986;18.950;2022-09-01T08:37:02;3.45;;;0.90;;
37323;SDS011;23205;49.986;18.950;2022-09-01T08:47:11;1.77;;;0.50;;
37323;SDS011;23205;49.986;18.950;2022-09-01T08:52:18;4.38;;;0.70;;
37323;SDS011;23205;49.986;18.950;2022-09-01T08:57:58;2.75;;;0.43;;
37323;SDS011;23205;49.986;18.950;2022-09-01T09:08:21;2.75;;;0.70;;
37323;SDS011;23205;49.986;18.950;2022-09-01T09:18:42;4.25;;;1.50;;
37323;SDS011;23205;49.986;18.950;2022-09-01T09:23:45;3.63;;;0.70;;
37323;SDS011;23205;49.986;18.950;2022-09-01T09:28:48;1.92;;;0.60;;
37323;SDS011;23205;49.986;18.950;2022-09-01T09:33:49;5.95;;;1.02;;
37323;SDS011;23205;49.986;18.950;2022-09-01T09:39:13;5.53;;;0.63;;
37323;SDS011;23205;49.986;18.950;2022-09-01T09:44:26;4.38;;;0.50;;
37323;SDS011;23205;49.986;18.950;2022-09-01T09:49:31;7.88;;;0.60;;
37323;SDS011;23205;49.986;18.950;2022-09-01T09:54:34;4.93;;;0.73;;
37323;SDS011;23205;49.986;18.950;2022-09-01T10:04:40;3.75;;;0.50;;
37323;SDS011;23205;49.986;18.950;2022-09-01T10:09:40;2.10;;;0.47;;
37323;SDS011;23205;49.986;18.950;2022-09-01T10:14:42;1.60;;;0.40;;
37323;SDS011;23205;49.986;18.950;2022-09-01T10:19:56;1.98;;;0.50;;
37323;SDS011;23205;49.986;18.950;2022-09-01T10:25:05;2.83;;;0.35;;
37323;SDS011;23205;49.986;18.950;2022-09-01T10:30:11;1.27;;;0.40;;
37323;SDS011;23205;49.986;18.950;2022-09-01T10:35:32;4.45;;;0.50;;
37323;SDS011;23205;49.986;18.950;2022-09-01T10:40:40;5.55;;;0.35;;
37323;SDS011;23205;49.986;18.950;2022-09-01T10:45:44;1.83;;;0.40;;
37323;SDS011;23205;49.986;18.950;2022-09-01T10:50:46;3.30;;;0.57;;
37323;SDS011;23205;49.986;18.950;2022-09-01T10:56:05;2.45;;;0.60;;
37323;SDS011;23205;49.986;18.950;2022-09-01T11:01:17;2.05;;;0.50;;
37323;SDS011;23205;49.986;18.950;2022-09-01T11:17:09;3.05;;;0.60;;
37323;SDS011;23205;49.986;18.950;2022-09-01T11:32:51;4.15;;;0.43;;
37323;SDS011;23205;49.986;18.950;2022-09-01T11:38:01;5.78;;;0.82;;
37323;SDS011;23205;49.986;18.950;2022-09-01T11:43:07;2.97;;;0.40;;
37323;SDS011;23205;49.986;18.950;2022-09-01T11:48:13;1.30;;;0.32;;
37323;SDS011;23205;49.986;18.950;2022-09-01T11:53:19;4.38;;;0.70;;
37323;SDS011;23205;49.986;18.950;2022-09-01T12:03:28;3.05;;;0.47;;
37323;SDS011;23205;49.986;18.950;2022-09-01T12:08:30;4.65;;;0.50;;
37323;SDS011;23205;49.986;18.950;2022-09-01T12:13:34;4.00;;;0.50;;
37323;SDS011;23205;49.986;18.950;2022-09-01T12:18:37;2.22;;;0.50;;
37323;SDS011;23205;49.986;18.950;2022-09-01T12:23:44;3.28;;;0.60;;
37323;SDS011;23205;49.986;18.950;2022-09-01T12:28:45;5.28;;;0.70;;
37323;SDS011;23205;49.986;18.950;2022-09-01T12:33:49;2.50;;;0.50;;
37323;SDS011;23205;49.986;18.950;2022-09-01T12:38:54;2.42;;;0.30;;
37323;SDS011;23205;49.986;18.950;2022-09-01T12:44:24;2.15;;;0.50;;
37323;SDS011;23205;49.986;18.950;2022-09-01T12:49:40;4.85;;;0.63;;
37323;SDS011;23205;49.986;18.950;2022-09-01T12:54:43;2.60;;;0.45;;
37323;SDS011;23205;49.986;18.950;2022-09-01T12:59:44;5.90;;;0.50;;
37323;SDS011;23205;49.986;18.950;2022-09-01T13:04:45;7.30;;;0.80;;
37323;SDS011;23205;49.986;18.950;2022-09-01T13:09:46;10.93;;;0.90;;
37323;SDS011;23205;49.986;18.950;2022-09-01T13:14:47;9.25;;;0.73;;
37323;SDS011;23205;49.986;18.950;2022-09-01T13:19:48;9.85;;;0.68;;
37323;SDS011;23205;49.986;18.950;2022-09-01T13:24:49;7.80;;;1.02;;
37323;SDS011;23205;49.986;18.950;2022-09-01T13:29:49;7.07;;;0.65;;
37323;SDS011;23205;49.986;18.950;2022-09-01T13:34:51;2.60;;;0.63;;
37323;SDS011;23205;49.986;18.950;2022-09-01T13:39:53;2.90;;;0.47;;
37323;SDS011;23205;49.986;18.950;2022-09-01T13:44:54;4.55;;;0.60;;
37323;SDS011;23205;49.986;18.950;2022-09-01T13:49:54;5.18;;;0.57;;
37323;SDS011;23205;49.986;18.950;2022-09-01T13:54:55;8.38;;;0.80;;
37323;SDS011;23205;49.986;18.950;2022-09-01T13:59:56;4.95;;;0.52;;
37323;SDS011;23205;49.986;18.950;2022-09-01T14:04:57;4.05;;;0.52;;
37323;SDS011;23205;49.986;18.950;2022-09-01T14:09:58;6.50;;;0.47;;
37323;SDS011;23205;49.986;18.950;2022-09-01T14:14:59;8.70;;;0.98;;
37323;SDS011;23205;49.986;18.950;2022-09-01T14:20:00;6.10;;;0.75;;
37323;SDS011;23205;49.986;18.950;2022-09-01T14:25:02;4.43;;;0.80;;
37323;SDS011;23205;49.986;18.950;2022-09-01T14:30:04;3.35;;;0.47;;
37323;SDS011;23205;49.986;18.950;2022-09-01T14:35:05;5.63;;;0.50;;
37323;SDS011;23205;49.986;18.950;2022-09-01T14:40:07;1.88;;;0.40;;
37323;SDS011;23205;49.986;18.950;2022-09-01T14:45:10;1.55;;;0.32;;
37323;SDS011;23205;49.986;18.950;2022-09-01T14:50:11;2.88;;;0.70;;
37323;SDS011;23205;49.986;18.950;2022-09-01T14:55:12;3.53;;;0.57;;
37323;SDS011;23205;49.986;18.950;2022-09-01T15:00:13;7.47;;;0.60;;
37323;SDS011;23205;49.986;18.950;2022-09-01T15:05:14;3.10;;;0.68;;
37323;SDS011;23205;49.986;18.950;2022-09-01T15:10:16;2.85;;;0.50;;
37323;SDS011;23205;49.986;18.950;2022-09-01T15:15:20;4.18;;;0.77;;
37323;SDS011;23205;49.986;18.950;2022-09-01T15:20:21;2.78;;;0.30;;
37323;SDS011;23205;49.986;18.950;2022-09-01T15:25:41;3.53;;;0.38;;
37323;SDS011;23205;49.986;18.950;2022-09-01T15:30:43;3.50;;;0.35;;
37323;SDS011;23205;49.986;18.950;2022-09-01T15:35:45;1.33;;;0.30;;
37323;SDS011;23205;49.986;18.950;2022-09-01T15:40:46;5.13;;;0.38;;
37323;SDS011;23205;49.986;18.950;2022-09-01T15:45:48;1.65;;;0.30;;
37323;SDS011;23205;49.986;18.950;2022-09-01T15:50:48;5.25;;;0.70;;
37323;SDS011;23205;49.986;18.950;2022-09-01T15:55:49;3.17;;;0.43;;
37323;SDS011;23205;49.986;18.950;2022-09-01T16:00:50;8.52;;;0.77;;
37323;SDS011;23205;49.986;18.950;2022-09-01T16:05:51;2.13;;;0.60;;
37323;SDS011;23205;49.986;18.950;2022-09-01T16:10:52;5.45;;;0.88;;
37323;SDS011;23205;49.986;18.950;2022-09-01T16:22:32;4.43;;;0.95;;
37323;SDS011;23205;49.986;18.950;2022-09-01T16:27:21;5.60;;;0.77;;
37323;SDS011;23205;49.986;18.950;2022-09-01T16:32:26;7.13;;;1.20;;
37323;SDS011;23205;49.986;18.950;2022-09-01T16:58:19;6.00;;;0.60;;
37323;SDS011;23205;49.986;18.950;2022-09-01T17:08:50;5.63;;;0.70;;
37323;SDS011;23205;49.986;18.950;2022-09-01T17:13:56;4.73;;;0.83;;
37323;SDS011;23205;49.986;18.950;2022-09-01T17:18:59;11.25;;;1.77;;
37323;SDS011;23205;49.986;18.950;2022-09-01T17:24:12;10.60;;;4.63;;
37323;SDS011;23205;49.986;18.950;2022-09-01T17:29:42;19.48;;;6.45;;
37323;SDS011;23205;49.986;18.950;2022-09-01T17:39:59;12.43;;;3.58;;
37323;SDS011;23205;49.986;18.950;2022-09-01T17:45:24;12.25;;;3.92;;
37323;SDS011;23205;49.986;18.950;2022-09-01T17:56:08;10.38;;;2.70;;
37323;SDS011;23205;49.986;18.950;2022-09-01T18:06:47;8.43;;;2.22;;
37323;SDS011;23205;49.986;18.950;2022-09-01T18:12:02;11.88;;;3.35;;
37323;SDS011;23205;49.986;18.950;2022-09-01T18:17:21;8.40;;;3.00;;
37323;SDS011;23205;49.986;18.950;2022-09-01T18:22:35;6.53;;;2.30;;
37323;SDS011;23205;49.986;18.950;2022-09-01T18:27:43;11.68;;;3.70;;
37323;SDS011;23205;49.986;18.950;2022-09-01T18:37:52;11.10;;;2.80;;
37323;SDS011;23205;49.986;18.950;2022-09-01T18:48:36;5.78;;;1.20;;
37323;SDS011;23205;49.986;18.950;2022-09-01T18:53:56;7.60;;;1.38;;
37323;SDS011;23205;49.986;18.950;2022-09-01T19:04:52;4.22;;;1.00;;
37323;SDS011;23205;49.986;18.950;2022-09-01T19:20:54;5.00;;;1.65;;
37323;SDS011;23205;49.986;18.950;2022-09-01T19:26:17;6.90;;;2.20;;
37323;SDS011;23205;49.986;18.950;2022-09-01T19:31:22;6.47;;;1.77;;
37323;SDS011;23205;49.986;18.950;2022-09-01T19:36:43;5.75;;;1.65;;
37323;SDS011;23205;49.986;18.950;2022-09-01T19:47:13;10.13;;;2.42;;
37323;SDS011;23205;49.986;18.950;2022-09-01T20:03:09;8.85;;;2.00;;
37323;SDS011;23205;49.986;18.950;2022-09-01T20:08:23;8.30;;;2.33;;
37323;SDS011;23205;49.986;18.950;2022-09-01T20:24:12;8.23;;;3.35;;
37323;SDS011;23205;49.986;18.950;2022-09-01T20:34:40;9.43;;;2.90;;
37323;SDS011;23205;49.986;18.950;2022-09-01T20:39:53;9.07;;;3.33;;
37323;SDS011;23205;49.986;18.950;2022-09-01T20:45:00;13.05;;;4.40;;
37323;SDS011;23205;49.986;18.950;2022-09-01T20:55:15;12.77;;;5.00;;
37323;SDS011;23205;49.986;18.950;2022-09-01T21:00:28;13.38;;;5.18;;
37323;SDS011;23205;49.986;18.950;2022-09-01T21:16:13;10.90;;;4.93;;
37323;SDS011;23205;49.986;18.950;2022-09-01T21:21:25;11.60;;;4.45;;
37323;SDS011;23205;49.986;18.950;2022-09-01T21:26:45;10.02;;;4.57;;
37323;SDS011;23205;49.986;18.950;2022-09-01T21:31:48;9.90;;;4.85;;
37323;SDS011;23205;49.986;18.950;2022-09-01T21:36:49;11.27;;;4.70;;
37323;SDS011;23205;49.986;18.950;2022-09-01T21:41:49;11.50;;;4.50;;
37323;SDS011;23205;49.986;18.950;2022-09-01T21:46:50;12.20;;;5.10;;
37323;SDS011;23205;49.986;18.950;2022-09-01T21:51:51;14.25;;;5.93;;
37323;SDS011;23205;49.986;18.950;2022-09-01T21:56:52;12.68;;;4.00;;
37323;SDS011;23205;49.986;18.950;2022-09-01T22:01:53;11.35;;;4.30;;
37323;SDS011;23205;49.986;18.950;2022-09-01T22:06:54;12.50;;;4.57;;
37323;SDS011;23205;49.986;18.950;2022-09-01T22:11:55;13.95;;;5.75;;
37323;SDS011;23205;49.986;18.950;2022-09-01T22:16:56;18.40;;;5.93;;
37323;SDS011;23205;49.986;18.950;2022-09-01T22:21:56;11.40;;;5.03;;
37323;SDS011;23205;49.986;18.950;2022-09-01T22:26:57;12.40;;;4.78;;
37323;SDS011;23205;49.986;18.950;2022-09-01T22:31:58;12.95;;;4.65;;
37323;SDS011;23205;49.986;18.950;2022-09-01T22:36:59;10.85;;;4.90;;
37323;SDS011;23205;49.986;18.950;2022-09-01T22:42:00;11.05;;;4.85;;
37323;SDS011;23205;49.986;18.950;2022-09-01T22:47:02;10.32;;;3.20;;
37323;SDS011;23205;49.986;18.950;2022-09-01T22:52:03;10.27;;;3.30;;
37323;SDS011;23205;49.986;18.950;2022-09-01T22:57:04;8.27;;;2.70;;
37323;SDS011;23205;49.986;18.950;2022-09-01T23:02:05;6.40;;;2.85;;
37323;SDS011;23205;49.986;18.950;2022-09-01T23:07:06;6.53;;;2.58;;
37323;SDS011;23205;49.986;18.950;2022-09-01T23:12:06;9.95;;;3.55;;
37323;SDS011;23205;49.986;18.950;2022-09-01T23:17:07;11.18;;;3.95;;
37323;SDS011;23205;49.986;18.950;2022-09-01T23:22:08;10.05;;;3.70;;
37323;SDS011;23205;49.986;18.950;2022-09-01T23:27:09;11.60;;;4.53;;
37323;SDS011;23205;49.986;18.950;2022-09-01T23:32:10;10.30;;;4.15;;
37323;SDS011;23205;49.986;18.950;2022-09-01T23:37:11;14.88;;;3.92;;
37323;SDS011;23205;49.986;18.950;2022-09-01T23:42:12;9.48;;;3.28;;
37323;SDS011;23205;49.986;18.950;2022-09-01T23:47:13;10.20;;;4.15;;
37323;SDS011;23205;49.986;18.950;2022-09-01T23:52:14;9.35;;;4.10;;
37323;SDS011;23205;49.986;18.950;2022-09-01T23:57:15;12.20;;;3.45;;
